sensor_id;sensor_type;location;lat;lon;timestamp;P1;durP1;ratioP1;P2;durP2;ratioP2
31450;SDS011;18070;52.474;13.304;2024-01-06T00:01:49;83.43;;;40.67;;
31450;SDS011;18070;52.474;13.304;2024-01-06T00:04:15;97.70;;;44.83;;
31450;SDS011;18070;52.474;13.304;2024-01-06T00:06:41;97.20;;;45.90;;
31450;SDS011;18070;52.474;13.304;2024-01-06T00:09:07;94.82;;;44.45;;
31450;SDS011;18070;52.474;13.304;2024-01-06T00:11:34;88.95;;;42.67;;
31450;SDS011;18070;52.474;13.304;2024-01-06T00:14:00;92.35;;;44.63;;
31450;SDS011;18070;52.474;13.304;2024-01-06T00:16:26;87.47;;;44.85;;
31450;SDS011;18070;52.474;13.304;2024-01-06T00:18:52;88.45;;;40.63;;
31450;SDS011;18070;52.474;13.304;2024-01-06T00:21:18;98.50;;;45.00;;
31450;SDS011;18070;52.474;13.304;2024-01-06T00:23:44;87.22;;;38.90;;
31450;SDS011;18070;52.474;13.304;2024-01-06T00:26:10;87.88;;;41.03;;
31450;SDS011;18070;52.474;13.304;2024-01-06T00:28:37;102.50;;;46.03;;
31450;SDS011;18070;52.474;13.304;2024-01-06T00:31:04;89.93;;;44.97;;
31450;SDS011;18070;52.474;13.304;2024-01-06T00:33:30;91.63;;;41.60;;
31450;SDS011;18070;52.474;13.304;2024-01-06T00:35:56;93.10;;;44.72;;
31450;SDS011;18070;52.474;13.304;2024-01-06T00:38:22;86.40;;;40.15;;
31450;SDS011;18070;52.474;13.304;2024-01-06T00:40:48;87.80;;;42.75;;
31450;SDS011;18070;52.474;13.304;2024-01-06T00:43:14;94.20;;;40.58;;
31450;SDS011;18070;52.474;13.304;2024-01-06T00:45:40;90.03;;;40.55;;
31450;SDS011;18070;52.474;13.304;2024-01-06T00:48:06;84.50;;;37.35;;
31450;SDS011;18070;52.474;13.304;2024-01-06T00:50:32;93.88;;;41.35;;
31450;SDS011;18070;52.474;13.304;2024-01-06T00:52:58;83.43;;;41.38;;
31450;SDS011;18070;52.474;13.304;2024-01-06T00:55:24;82.75;;;38.83;;
31450;SDS011;18070;52.474;13.304;2024-01-06T00:57:50;80.93;;;41.28;;
31450;SDS011;18070;52.474;13.304;2024-01-06T01:00:17;97.00;;;42.17;;
31450;SDS011;18070;52.474;13.304;2024-01-06T01:02:43;84.30;;;43.05;;
31450;SDS011;18070;52.474;13.304;2024-01-06T01:05:09;89.63;;;43.50;;
31450;SDS011;18070;52.474;13.304;2024-01-06T01:07:35;84.30;;;42.45;;
31450;SDS011;18070;52.474;13.304;2024-01-06T01:10:01;82.43;;;39.08;;
31450;SDS011;18070;52.474;13.304;2024-01-06T01:12:27;83.03;;;40.53;;
31450;SDS011;18070;52.474;13.304;2024-01-06T01:14:53;84.13;;;40.50;;
31450;SDS011;18070;52.474;13.304;2024-01-06T01:17:19;78.32;;;37.25;;
31450;SDS011;18070;52.474;13.304;2024-01-06T01:19:46;80.93;;;37.80;;
31450;SDS011;18070;52.474;13.304;2024-01-06T01:22:12;76.07;;;40.58;;
31450;SDS011;18070;52.474;13.304;2024-01-06T01:24:38;82.80;;;38.92;;
31450;SDS011;18070;52.474;13.304;2024-01-06T01:27:04;77.63;;;36.72;;
31450;SDS011;18070;52.474;13.304;2024-01-06T01:29:30;80.30;;;39.28;;
31450;SDS011;18070;52.474;13.304;2024-01-06T01:31:56;79.68;;;37.50;;
31450;SDS011;18070;52.474;13.304;2024-01-06T01:34:22;77.30;;;33.90;;
31450;SDS011;18070;52.474;13.304;2024-01-06T01:36:48;76.57;;;36.33;;
31450;SDS011;18070;52.474;13.304;2024-01-06T01:39:14;76.40;;;37.78;;
31450;SDS011;18070;52.474;13.304;2024-01-06T01:41:40;75.80;;;35.65;;
31450;SDS011;18070;52.474;13.304;2024-01-06T01:44:06;74.80;;;36.75;;
31450;SDS011;18070;52.474;13.304;2024-01-06T01:46:32;74.13;;;36.45;;
31450;SDS011;18070;52.474;13.304;2024-01-06T01:48:59;71.93;;;35.78;;
31450;SDS011;18070;52.474;13.304;2024-01-06T01:51:29;70.63;;;35.90;;
31450;SDS011;18070;52.474;13.304;2024-01-06T01:53:57;72.97;;;34.13;;
31450;SDS011;18070;52.474;13.304;2024-01-06T01:56:24;88.88;;;36.50;;
31450;SDS011;18070;52.474;13.304;2024-01-06T01:58:50;77.30;;;34.83;;
31450;SDS011;18070;52.474;13.304;2024-01-06T02:01:16;74.07;;;37.20;;
31450;SDS011;18070;52.474;13.304;2024-01-06T02:03:42;75.53;;;35.15;;
31450;SDS011;18070;52.474;13.304;2024-01-06T02:06:09;75.55;;;35.53;;
31450;SDS011;18070;52.474;13.304;2024-01-06T02:08:35;73.60;;;35.22;;
31450;SDS011;18070;52.474;13.304;2024-01-06T02:11:01;79.55;;;36.30;;
31450;SDS011;18070;52.474;13.304;2024-01-06T02:13:35;84.22;;;37.20;;
31450;SDS011;18070;52.474;13.304;2024-01-06T02:16:04;73.85;;;34.38;;
31450;SDS011;18070;52.474;13.304;2024-01-06T02:18:31;79.65;;;34.22;;
31450;SDS011;18070;52.474;13.304;2024-01-06T02:20:58;72.82;;;33.78;;
31450;SDS011;18070;52.474;13.304;2024-01-06T02:23:25;76.45;;;35.25;;
31450;SDS011;18070;52.474;13.304;2024-01-06T02:25:51;70.72;;;32.83;;
31450;SDS011;18070;52.474;13.304;2024-01-06T02:28:17;70.70;;;33.90;;
31450;SDS011;18070;52.474;13.304;2024-01-06T02:30:43;76.72;;;33.72;;
31450;SDS011;18070;52.474;13.304;2024-01-06T02:33:09;73.68;;;32.75;;
31450;SDS011;18070;52.474;13.304;2024-01-06T02:35:35;71.07;;;32.97;;
31450;SDS011;18070;52.474;13.304;2024-01-06T02:38:01;64.35;;;32.83;;
31450;SDS011;18070;52.474;13.304;2024-01-06T02:40:27;70.03;;;34.00;;
31450;SDS011;18070;52.474;13.304;2024-01-06T02:42:54;72.60;;;34.15;;
31450;SDS011;18070;52.474;13.304;2024-01-06T02:45:20;67.68;;;33.00;;
31450;SDS011;18070;52.474;13.304;2024-01-06T02:47:46;71.78;;;35.47;;
31450;SDS011;18070;52.474;13.304;2024-01-06T02:50:12;64.18;;;31.58;;
31450;SDS011;18070;52.474;13.304;2024-01-06T02:52:38;71.68;;;33.13;;
31450;SDS011;18070;52.474;13.304;2024-01-06T02:55:04;74.93;;;33.30;;
31450;SDS011;18070;52.474;13.304;2024-01-06T02:57:30;67.53;;;32.90;;
31450;SDS011;18070;52.474;13.304;2024-01-06T02:59:56;69.25;;;34.08;;
31450;SDS011;18070;52.474;13.304;2024-01-06T03:02:22;69.68;;;34.42;;
31450;SDS011;18070;52.474;13.304;2024-01-06T03:04:49;68.20;;;32.28;;
31450;SDS011;18070;52.474;13.304;2024-01-06T03:07:15;65.70;;;32.45;;
31450;SDS011;18070;52.474;13.304;2024-01-06T03:09:41;75.95;;;33.53;;
31450;SDS011;18070;52.474;13.304;2024-01-06T03:12:07;67.85;;;31.30;;
31450;SDS011;18070;52.474;13.304;2024-01-06T03:14:36;69.70;;;32.42;;
31450;SDS011;18070;52.474;13.304;2024-01-06T03:17:02;71.70;;;33.95;;
31450;SDS011;18070;52.474;13.304;2024-01-06T03:19:30;80.55;;;36.45;;
31450;SDS011;18070;52.474;13.304;2024-01-06T03:21:56;71.13;;;34.90;;
31450;SDS011;18070;52.474;13.304;2024-01-06T03:24:23;75.45;;;33.03;;
31450;SDS011;18070;52.474;13.304;2024-01-06T03:26:50;71.72;;;34.15;;
31450;SDS011;18070;52.474;13.304;2024-01-06T03:29:16;71.63;;;33.42;;
31450;SDS011;18070;52.474;13.304;2024-01-06T03:31:42;73.35;;;35.45;;
31450;SDS011;18070;52.474;13.304;2024-01-06T03:34:08;78.88;;;34.35;;
31450;SDS011;18070;52.474;13.304;2024-01-06T03:36:36;72.18;;;33.53;;
31450;SDS011;18070;52.474;13.304;2024-01-06T03:39:02;72.70;;;35.08;;
31450;SDS011;18070;52.474;13.304;2024-01-06T03:41:28;73.65;;;33.42;;
31450;SDS011;18070;52.474;13.304;2024-01-06T03:43:54;74.85;;;35.42;;
31450;SDS011;18070;52.474;13.304;2024-01-06T03:46:20;64.43;;;31.63;;
31450;SDS011;18070;52.474;13.304;2024-01-06T03:48:46;67.13;;;32.35;;
31450;SDS011;18070;52.474;13.304;2024-01-06T03:51:12;71.93;;;31.60;;
31450;SDS011;18070;52.474;13.304;2024-01-06T03:53:38;69.30;;;34.00;;
31450;SDS011;18070;52.474;13.304;2024-01-06T03:56:05;75.22;;;32.83;;
31450;SDS011;18070;52.474;13.304;2024-01-06T03:58:31;71.22;;;33.08;;
31450;SDS011;18070;52.474;13.304;2024-01-06T04:00:57;71.53;;;33.97;;
31450;SDS011;18070;52.474;13.304;2024-01-06T04:03:23;74.82;;;33.50;;
31450;SDS011;18070;52.474;13.304;2024-01-06T04:05:49;82.65;;;36.97;;
31450;SDS011;18070;52.474;13.304;2024-01-06T04:08:15;72.88;;;35.67;;
31450;SDS011;18070;52.474;13.304;2024-01-06T04:10:41;72.22;;;33.78;;
31450;SDS011;18070;52.474;13.304;2024-01-06T04:13:08;71.07;;;36.38;;
31450;SDS011;18070;52.474;13.304;2024-01-06T04:15:34;66.95;;;34.20;;
31450;SDS011;18070;52.474;13.304;2024-01-06T04:18:03;74.82;;;32.38;;
31450;SDS011;18070;52.474;13.304;2024-01-06T04:20:29;82.10;;;34.67;;
31450;SDS011;18070;52.474;13.304;2024-01-06T04:22:55;76.57;;;32.35;;
31450;SDS011;18070;52.474;13.304;2024-01-06T04:25:21;75.13;;;32.88;;
31450;SDS011;18070;52.474;13.304;2024-01-06T04:27:47;71.57;;;32.45;;
31450;SDS011;18070;52.474;13.304;2024-01-06T04:30:14;83.85;;;38.15;;
31450;SDS011;18070;52.474;13.304;2024-01-06T04:32:41;74.85;;;32.75;;
31450;SDS011;18070;52.474;13.304;2024-01-06T04:35:07;74.85;;;35.83;;
31450;SDS011;18070;52.474;13.304;2024-01-06T04:37:33;77.82;;;35.75;;
31450;SDS011;18070;52.474;13.304;2024-01-06T04:39:59;75.80;;;33.92;;
31450;SDS011;18070;52.474;13.304;2024-01-06T04:42:25;68.30;;;32.53;;
31450;SDS011;18070;52.474;13.304;2024-01-06T04:44:51;79.30;;;34.35;;
31450;SDS011;18070;52.474;13.304;2024-01-06T04:47:18;80.75;;;33.72;;
31450;SDS011;18070;52.474;13.304;2024-01-06T04:49:44;77.20;;;34.58;;
31450;SDS011;18070;52.474;13.304;2024-01-06T04:52:10;70.80;;;33.75;;
31450;SDS011;18070;52.474;13.304;2024-01-06T04:54:36;86.45;;;36.58;;
31450;SDS011;18070;52.474;13.304;2024-01-06T04:57:02;91.10;;;35.53;;
31450;SDS011;18070;52.474;13.304;2024-01-06T04:59:29;77.63;;;33.63;;
31450;SDS011;18070;52.474;13.304;2024-01-06T05:01:55;82.75;;;37.17;;
31450;SDS011;18070;52.474;13.304;2024-01-06T05:04:23;78.15;;;34.65;;
31450;SDS011;18070;52.474;13.304;2024-01-06T05:06:49;83.22;;;35.63;;
31450;SDS011;18070;52.474;13.304;2024-01-06T05:09:15;75.35;;;35.20;;
31450;SDS011;18070;52.474;13.304;2024-01-06T05:11:43;82.40;;;36.63;;
31450;SDS011;18070;52.474;13.304;2024-01-06T05:14:09;84.88;;;36.60;;
31450;SDS011;18070;52.474;13.304;2024-01-06T05:16:35;86.53;;;37.90;;
31450;SDS011;18070;52.474;13.304;2024-01-06T05:19:01;83.32;;;37.25;;
31450;SDS011;18070;52.474;13.304;2024-01-06T05:21:27;86.43;;;37.97;;
31450;SDS011;18070;52.474;13.304;2024-01-06T05:23:53;88.70;;;35.72;;
31450;SDS011;18070;52.474;13.304;2024-01-06T05:26:19;82.65;;;37.78;;
31450;SDS011;18070;52.474;13.304;2024-01-06T05:28:45;92.05;;;39.95;;
31450;SDS011;18070;52.474;13.304;2024-01-06T05:31:11;79.60;;;37.47;;
31450;SDS011;18070;52.474;13.304;2024-01-06T05:33:37;83.10;;;34.88;;
31450;SDS011;18070;52.474;13.304;2024-01-06T05:36:03;86.55;;;35.65;;
31450;SDS011;18070;52.474;13.304;2024-01-06T05:38:29;91.70;;;36.58;;
31450;SDS011;18070;52.474;13.304;2024-01-06T05:40:55;91.47;;;39.88;;
31450;SDS011;18070;52.474;13.304;2024-01-06T05:43:21;86.80;;;39.70;;
31450;SDS011;18070;52.474;13.304;2024-01-06T05:45:47;87.05;;;37.33;;
31450;SDS011;18070;52.474;13.304;2024-01-06T05:48:13;88.82;;;36.63;;
31450;SDS011;18070;52.474;13.304;2024-01-06T05:50:39;96.13;;;40.67;;
31450;SDS011;18070;52.474;13.304;2024-01-06T05:53:06;99.47;;;40.30;;
31450;SDS011;18070;52.474;13.304;2024-01-06T05:55:32;94.53;;;39.15;;
31450;SDS011;18070;52.474;13.304;2024-01-06T05:57:58;95.47;;;40.42;;
31450;SDS011;18070;52.474;13.304;2024-01-06T06:00:25;94.50;;;39.45;;
31450;SDS011;18070;52.474;13.304;2024-01-06T06:02:51;91.47;;;40.50;;
31450;SDS011;18070;52.474;13.304;2024-01-06T06:05:17;98.45;;;40.58;;
31450;SDS011;18070;52.474;13.304;2024-01-06T06:07:45;100.57;;;40.40;;
31450;SDS011;18070;52.474;13.304;2024-01-06T06:10:11;94.25;;;41.70;;
31450;SDS011;18070;52.474;13.304;2024-01-06T06:12:37;97.60;;;41.17;;
31450;SDS011;18070;52.474;13.304;2024-01-06T06:15:04;86.70;;;39.65;;
31450;SDS011;18070;52.474;13.304;2024-01-06T06:17:31;89.50;;;39.30;;
31450;SDS011;18070;52.474;13.304;2024-01-06T06:19:57;88.45;;;39.88;;
31450;SDS011;18070;52.474;13.304;2024-01-06T06:22:23;92.20;;;41.42;;
31450;SDS011;18070;52.474;13.304;2024-01-06T06:24:51;90.30;;;39.95;;
31450;SDS011;18070;52.474;13.304;2024-01-06T06:27:17;93.88;;;38.90;;
31450;SDS011;18070;52.474;13.304;2024-01-06T06:29:43;93.28;;;41.50;;
31450;SDS011;18070;52.474;13.304;2024-01-06T06:32:09;90.63;;;39.60;;
31450;SDS011;18070;52.474;13.304;2024-01-06T06:34:35;96.18;;;40.50;;
31450;SDS011;18070;52.474;13.304;2024-01-06T06:37:01;86.22;;;38.30;;
31450;SDS011;18070;52.474;13.304;2024-01-06T06:39:28;90.28;;;40.85;;
31450;SDS011;18070;52.474;13.304;2024-01-06T06:41:56;97.15;;;40.97;;
31450;SDS011;18070;52.474;13.304;2024-01-06T06:44:22;100.70;;;41.20;;
31450;SDS011;18070;52.474;13.304;2024-01-06T06:46:49;84.55;;;37.72;;
31450;SDS011;18070;52.474;13.304;2024-01-06T06:49:15;83.90;;;37.22;;
31450;SDS011;18070;52.474;13.304;2024-01-06T06:51:41;84.53;;;40.42;;
31450;SDS011;18070;52.474;13.304;2024-01-06T06:54:11;92.78;;;41.20;;
31450;SDS011;18070;52.474;13.304;2024-01-06T06:56:38;98.95;;;39.17;;
31450;SDS011;18070;52.474;13.304;2024-01-06T06:59:03;88.18;;;38.78;;
31450;SDS011;18070;52.474;13.304;2024-01-06T07:01:30;90.13;;;42.58;;
31450;SDS011;18070;52.474;13.304;2024-01-06T07:03:56;86.70;;;38.83;;
31450;SDS011;18070;52.474;13.304;2024-01-06T07:06:22;96.88;;;38.10;;
31450;SDS011;18070;52.474;13.304;2024-01-06T07:08:48;102.40;;;41.80;;
31450;SDS011;18070;52.474;13.304;2024-01-06T07:11:14;93.68;;;38.65;;
31450;SDS011;18070;52.474;13.304;2024-01-06T07:13:43;88.00;;;39.30;;
31450;SDS011;18070;52.474;13.304;2024-01-06T07:16:09;88.30;;;39.60;;
31450;SDS011;18070;52.474;13.304;2024-01-06T07:18:36;86.05;;;36.53;;
31450;SDS011;18070;52.474;13.304;2024-01-06T07:21:04;99.05;;;40.10;;
31450;SDS011;18070;52.474;13.304;2024-01-06T07:23:31;83.70;;;36.53;;
31450;SDS011;18070;52.474;13.304;2024-01-06T07:25:57;92.10;;;43.40;;
31450;SDS011;18070;52.474;13.304;2024-01-06T07:28:23;85.60;;;34.58;;
31450;SDS011;18070;52.474;13.304;2024-01-06T07:30:49;93.57;;;38.25;;
31450;SDS011;18070;52.474;13.304;2024-01-06T07:33:15;105.13;;;41.00;;
31450;SDS011;18070;52.474;13.304;2024-01-06T07:35:41;86.03;;;37.80;;
31450;SDS011;18070;52.474;13.304;2024-01-06T07:38:09;93.50;;;37.63;;
31450;SDS011;18070;52.474;13.304;2024-01-06T07:40:38;88.97;;;36.80;;
31450;SDS011;18070;52.474;13.304;2024-01-06T07:43:04;89.60;;;38.38;;
31450;SDS011;18070;52.474;13.304;2024-01-06T07:45:31;89.15;;;39.00;;
31450;SDS011;18070;52.474;13.304;2024-01-06T07:47:59;89.43;;;37.40;;
31450;SDS011;18070;52.474;13.304;2024-01-06T07:50:26;102.43;;;39.55;;
31450;SDS011;18070;52.474;13.304;2024-01-06T07:52:53;99.70;;;40.45;;
31450;SDS011;18070;52.474;13.304;2024-01-06T07:55:19;97.57;;;39.75;;
31450;SDS011;18070;52.474;13.304;2024-01-06T07:57:45;93.03;;;33.90;;
31450;SDS011;18070;52.474;13.304;2024-01-06T08:00:11;101.32;;;39.03;;
31450;SDS011;18070;52.474;13.304;2024-01-06T08:02:43;94.85;;;33.72;;
31450;SDS011;18070;52.474;13.304;2024-01-06T08:05:09;92.65;;;35.97;;
31450;SDS011;18070;52.474;13.304;2024-01-06T08:07:35;84.75;;;35.80;;
31450;SDS011;18070;52.474;13.304;2024-01-06T08:10:01;96.72;;;39.55;;
31450;SDS011;18070;52.474;13.304;2024-01-06T08:12:30;100.65;;;40.28;;
31450;SDS011;18070;52.474;13.304;2024-01-06T08:14:56;86.82;;;36.83;;
31450;SDS011;18070;52.474;13.304;2024-01-06T08:17:21;88.85;;;35.75;;
31450;SDS011;18070;52.474;13.304;2024-01-06T08:19:47;90.90;;;38.17;;
31450;SDS011;18070;52.474;13.304;2024-01-06T08:22:14;102.20;;;36.38;;
31450;SDS011;18070;52.474;13.304;2024-01-06T08:24:40;91.53;;;35.83;;
31450;SDS011;18070;52.474;13.304;2024-01-06T08:27:06;93.45;;;38.17;;
31450;SDS011;18070;52.474;13.304;2024-01-06T08:29:32;101.45;;;40.45;;
31450;SDS011;18070;52.474;13.304;2024-01-06T08:31:58;102.88;;;40.33;;
31450;SDS011;18070;52.474;13.304;2024-01-06T08:34:24;104.25;;;40.35;;
31450;SDS011;18070;52.474;13.304;2024-01-06T08:36:50;86.53;;;35.30;;
31450;SDS011;18070;52.474;13.304;2024-01-06T08:39:16;95.40;;;39.40;;
31450;SDS011;18070;52.474;13.304;2024-01-06T08:41:42;105.70;;;39.85;;
31450;SDS011;18070;52.474;13.304;2024-01-06T08:44:08;104.05;;;40.85;;
31450;SDS011;18070;52.474;13.304;2024-01-06T08:46:34;97.43;;;40.45;;
31450;SDS011;18070;52.474;13.304;2024-01-06T08:49:00;93.50;;;40.28;;
31450;SDS011;18070;52.474;13.304;2024-01-06T08:51:26;94.97;;;37.90;;
31450;SDS011;18070;52.474;13.304;2024-01-06T08:53:52;104.80;;;38.78;;
31450;SDS011;18070;52.474;13.304;2024-01-06T08:56:18;109.63;;;42.40;;
31450;SDS011;18070;52.474;13.304;2024-01-06T08:58:44;99.75;;;42.60;;
31450;SDS011;18070;52.474;13.304;2024-01-06T09:01:10;110.82;;;43.53;;
31450;SDS011;18070;52.474;13.304;2024-01-06T09:03:38;100.85;;;40.90;;
31450;SDS011;18070;52.474;13.304;2024-01-06T09:06:04;96.13;;;38.72;;
31450;SDS011;18070;52.474;13.304;2024-01-06T09:08:30;91.75;;;40.30;;
31450;SDS011;18070;52.474;13.304;2024-01-06T09:10:56;90.13;;;38.55;;
31450;SDS011;18070;52.474;13.304;2024-01-06T09:13:23;110.03;;;38.35;;
31450;SDS011;18070;52.474;13.304;2024-01-06T09:15:50;98.18;;;37.88;;
31450;SDS011;18070;52.474;13.304;2024-01-06T09:18:16;90.80;;;38.53;;
31450;SDS011;18070;52.474;13.304;2024-01-06T09:20:42;97.13;;;40.97;;
31450;SDS011;18070;52.474;13.304;2024-01-06T09:23:08;92.85;;;40.10;;
31450;SDS011;18070;52.474;13.304;2024-01-06T09:25:35;92.88;;;35.38;;
31450;SDS011;18070;52.474;13.304;2024-01-06T09:28:01;97.65;;;38.78;;
31450;SDS011;18070;52.474;13.304;2024-01-06T09:30:27;87.35;;;38.38;;
31450;SDS011;18070;52.474;13.304;2024-01-06T09:32:53;97.32;;;40.95;;
31450;SDS011;18070;52.474;13.304;2024-01-06T09:35:19;96.95;;;38.20;;
31450;SDS011;18070;52.474;13.304;2024-01-06T09:37:45;100.35;;;38.88;;
31450;SDS011;18070;52.474;13.304;2024-01-06T09:40:11;85.80;;;33.20;;
31450;SDS011;18070;52.474;13.304;2024-01-06T09:42:38;91.25;;;35.33;;
31450;SDS011;18070;52.474;13.304;2024-01-06T09:45:05;93.45;;;40.40;;
31450;SDS011;18070;52.474;13.304;2024-01-06T09:47:31;88.10;;;37.00;;
31450;SDS011;18070;52.474;13.304;2024-01-06T09:49:59;91.03;;;39.40;;
31450;SDS011;18070;52.474;13.304;2024-01-06T09:52:26;94.25;;;38.08;;
31450;SDS011;18070;52.474;13.304;2024-01-06T09:54:54;86.80;;;34.13;;
31450;SDS011;18070;52.474;13.304;2024-01-06T09:57:20;94.60;;;36.80;;
31450;SDS011;18070;52.474;13.304;2024-01-06T09:59:46;94.90;;;40.08;;
31450;SDS011;18070;52.474;13.304;2024-01-06T10:02:14;86.55;;;34.95;;
31450;SDS011;18070;52.474;13.304;2024-01-06T10:04:40;83.68;;;34.03;;
31450;SDS011;18070;52.474;13.304;2024-01-06T10:07:07;91.60;;;39.88;;
31450;SDS011;18070;52.474;13.304;2024-01-06T10:09:33;86.72;;;40.22;;
31450;SDS011;18070;52.474;13.304;2024-01-06T10:11:59;90.13;;;39.30;;
31450;SDS011;18070;52.474;13.304;2024-01-06T10:14:25;84.03;;;38.53;;
31450;SDS011;18070;52.474;13.304;2024-01-06T10:16:52;85.63;;;39.70;;
31450;SDS011;18070;52.474;13.304;2024-01-06T10:19:18;89.00;;;34.60;;
31450;SDS011;18070;52.474;13.304;2024-01-06T10:21:44;84.90;;;39.35;;
31450;SDS011;18070;52.474;13.304;2024-01-06T10:24:11;82.47;;;38.95;;
31450;SDS011;18070;52.474;13.304;2024-01-06T10:26:36;89.10;;;34.60;;
31450;SDS011;18070;52.474;13.304;2024-01-06T10:29:04;93.78;;;41.75;;
31450;SDS011;18070;52.474;13.304;2024-01-06T10:31:30;84.68;;;38.15;;
31450;SDS011;18070;52.474;13.304;2024-01-06T10:33:56;83.63;;;38.85;;
31450;SDS011;18070;52.474;13.304;2024-01-06T10:36:22;86.95;;;39.03;;
31450;SDS011;18070;52.474;13.304;2024-01-06T10:38:49;85.45;;;39.25;;
31450;SDS011;18070;52.474;13.304;2024-01-06T10:41:16;74.30;;;38.00;;
31450;SDS011;18070;52.474;13.304;2024-01-06T10:43:42;79.63;;;32.97;;
31450;SDS011;18070;52.474;13.304;2024-01-06T10:46:09;71.43;;;34.42;;
31450;SDS011;18070;52.474;13.304;2024-01-06T10:48:36;81.72;;;36.50;;
31450;SDS011;18070;52.474;13.304;2024-01-06T10:51:03;76.47;;;35.90;;
31450;SDS011;18070;52.474;13.304;2024-01-06T10:53:32;78.47;;;35.30;;
31450;SDS011;18070;52.474;13.304;2024-01-06T10:56:02;73.13;;;35.17;;
31450;SDS011;18070;52.474;13.304;2024-01-06T10:58:28;77.75;;;32.95;;
31450;SDS011;18070;52.474;13.304;2024-01-06T11:00:56;76.88;;;32.15;;
31450;SDS011;18070;52.474;13.304;2024-01-06T11:03:22;70.97;;;36.13;;
31450;SDS011;18070;52.474;13.304;2024-01-06T11:05:49;69.20;;;32.90;;
31450;SDS011;18070;52.474;13.304;2024-01-06T11:08:17;67.80;;;30.25;;
31450;SDS011;18070;52.474;13.304;2024-01-06T11:10:43;67.50;;;29.55;;
31450;SDS011;18070;52.474;13.304;2024-01-06T11:13:14;62.60;;;32.85;;
31450;SDS011;18070;52.474;13.304;2024-01-06T11:15:48;69.10;;;34.05;;
31450;SDS011;18070;52.474;13.304;2024-01-06T11:18:57;69.63;;;35.03;;
31450;SDS011;18070;52.474;13.304;2024-01-06T11:23:39;70.25;;;35.08;;
31450;SDS011;18070;52.474;13.304;2024-01-06T11:26:08;76.10;;;33.97;;
31450;SDS011;18070;52.474;13.304;2024-01-06T11:28:46;76.05;;;32.35;;
31450;SDS011;18070;52.474;13.304;2024-01-06T11:31:13;70.43;;;33.97;;
31450;SDS011;18070;52.474;13.304;2024-01-06T11:33:45;71.97;;;33.30;;
31450;SDS011;18070;52.474;13.304;2024-01-06T11:36:15;69.30;;;32.42;;
31450;SDS011;18070;52.474;13.304;2024-01-06T11:38:41;63.60;;;32.58;;
31450;SDS011;18070;52.474;13.304;2024-01-06T11:41:13;73.88;;;37.00;;
31450;SDS011;18070;52.474;13.304;2024-01-06T11:43:57;76.18;;;34.95;;
31450;SDS011;18070;52.474;13.304;2024-01-06T11:46:23;63.13;;;32.78;;
31450;SDS011;18070;52.474;13.304;2024-01-06T11:48:50;72.07;;;33.25;;
31450;SDS011;18070;52.474;13.304;2024-01-06T11:51:17;70.60;;;34.85;;
31450;SDS011;18070;52.474;13.304;2024-01-06T11:53:43;72.93;;;31.80;;
31450;SDS011;18070;52.474;13.304;2024-01-06T11:56:10;63.80;;;31.58;;
31450;SDS011;18070;52.474;13.304;2024-01-06T11:58:39;67.75;;;33.80;;
31450;SDS011;18070;52.474;13.304;2024-01-06T12:01:06;70.10;;;33.97;;
31450;SDS011;18070;52.474;13.304;2024-01-06T12:03:32;68.38;;;33.42;;
31450;SDS011;18070;52.474;13.304;2024-01-06T12:06:01;67.78;;;33.28;;
31450;SDS011;18070;52.474;13.304;2024-01-06T12:08:28;72.10;;;34.47;;
31450;SDS011;18070;52.474;13.304;2024-01-06T12:11:03;78.63;;;37.67;;
31450;SDS011;18070;52.474;13.304;2024-01-06T12:13:29;67.65;;;32.35;;
31450;SDS011;18070;52.474;13.304;2024-01-06T12:15:55;64.63;;;30.73;;
31450;SDS011;18070;52.474;13.304;2024-01-06T12:18:22;62.92;;;31.17;;
31450;SDS011;18070;52.474;13.304;2024-01-06T12:20:52;65.95;;;30.73;;
31450;SDS011;18070;52.474;13.304;2024-01-06T12:23:25;60.28;;;31.25;;
31450;SDS011;18070;52.474;13.304;2024-01-06T12:25:52;62.67;;;27.95;;
31450;SDS011;18070;52.474;13.304;2024-01-06T12:28:18;71.65;;;30.10;;
31450;SDS011;18070;52.474;13.304;2024-01-06T12:30:44;61.92;;;27.95;;
31450;SDS011;18070;52.474;13.304;2024-01-06T12:33:10;56.35;;;27.27;;
31450;SDS011;18070;52.474;13.304;2024-01-06T12:35:37;64.78;;;32.40;;
31450;SDS011;18070;52.474;13.304;2024-01-06T12:38:03;68.68;;;32.60;;
31450;SDS011;18070;52.474;13.304;2024-01-06T12:40:32;72.63;;;31.05;;
31450;SDS011;18070;52.474;13.304;2024-01-06T12:42:58;65.43;;;31.70;;
31450;SDS011;18070;52.474;13.304;2024-01-06T12:45:24;68.18;;;34.65;;
31450;SDS011;18070;52.474;13.304;2024-01-06T12:47:52;69.22;;;33.85;;
31450;SDS011;18070;52.474;13.304;2024-01-06T12:50:19;61.70;;;29.92;;
31450;SDS011;18070;52.474;13.304;2024-01-06T12:52:45;60.28;;;30.75;;
31450;SDS011;18070;52.474;13.304;2024-01-06T12:55:11;71.68;;;32.33;;
31450;SDS011;18070;52.474;13.304;2024-01-06T12:57:38;65.18;;;32.45;;
31450;SDS011;18070;52.474;13.304;2024-01-06T13:00:04;74.30;;;33.65;;
31450;SDS011;18070;52.474;13.304;2024-01-06T13:02:32;78.32;;;37.38;;
31450;SDS011;18070;52.474;13.304;2024-01-06T13:04:58;66.72;;;32.55;;
31450;SDS011;18070;52.474;13.304;2024-01-06T13:07:24;67.63;;;32.88;;
31450;SDS011;18070;52.474;13.304;2024-01-06T13:09:51;71.57;;;34.60;;
31450;SDS011;18070;52.474;13.304;2024-01-06T13:12:17;72.88;;;32.65;;
31450;SDS011;18070;52.474;13.304;2024-01-06T13:14:43;66.88;;;33.50;;
31450;SDS011;18070;52.474;13.304;2024-01-06T13:17:12;63.03;;;31.67;;
31450;SDS011;18070;52.474;13.304;2024-01-06T13:19:39;58.33;;;31.63;;
31450;SDS011;18070;52.474;13.304;2024-01-06T13:22:05;62.85;;;31.00;;
31450;SDS011;18070;52.474;13.304;2024-01-06T13:24:34;66.10;;;31.17;;
31450;SDS011;18070;52.474;13.304;2024-01-06T13:27:00;71.40;;;29.00;;
31450;SDS011;18070;52.474;13.304;2024-01-06T13:29:28;60.00;;;27.67;;
31450;SDS011;18070;52.474;13.304;2024-01-06T13:31:54;60.70;;;29.90;;
31450;SDS011;18070;52.474;13.304;2024-01-06T13:34:20;60.22;;;30.50;;
31450;SDS011;18070;52.474;13.304;2024-01-06T13:36:46;64.85;;;31.33;;
31450;SDS011;18070;52.474;13.304;2024-01-06T13:39:12;57.58;;;28.25;;
31450;SDS011;18070;52.474;13.304;2024-01-06T13:41:46;56.75;;;28.45;;
31450;SDS011;18070;52.474;13.304;2024-01-06T13:44:12;61.47;;;28.63;;
31450;SDS011;18070;52.474;13.304;2024-01-06T13:46:38;59.35;;;28.23;;
31450;SDS011;18070;52.474;13.304;2024-01-06T13:49:10;58.22;;;27.52;;
31450;SDS011;18070;52.474;13.304;2024-01-06T13:51:38;49.45;;;26.55;;
31450;SDS011;18070;52.474;13.304;2024-01-06T13:54:06;56.53;;;26.85;;
31450;SDS011;18070;52.474;13.304;2024-01-06T13:56:32;58.47;;;26.65;;
31450;SDS011;18070;52.474;13.304;2024-01-06T13:58:58;53.88;;;25.58;;
31450;SDS011;18070;52.474;13.304;2024-01-06T14:01:24;64.70;;;29.02;;
31450;SDS011;18070;52.474;13.304;2024-01-06T14:03:50;53.70;;;27.13;;
31450;SDS011;18070;52.474;13.304;2024-01-06T14:06:22;49.75;;;20.67;;
31450;SDS011;18070;52.474;13.304;2024-01-06T14:08:48;61.78;;;28.73;;